sensor_id;sensor_type;location;lat;lon;timestamp;temperature;humidity
56374;DHT22;58212;47.034;7.376;2023-02-01T00:00:00;3.20;99.90
56374;DHT22;58212;47.034;7.376;2023-02-01T00:02:31;3.40;99.90
56374;DHT22;58212;47.034;7.376;2023-02-01T00:04:58;3.30;99.90
56374;DHT22;58212;47.034;7.376;2023-02-01T00:07:27;3.20;99.90
56374;DHT22;58212;47.034;7.376;2023-02-01T00:09:54;3.20;99.90
56374;DHT22;58212;47.034;7.376;2023-02-01T00:12:21;3.10;99.90
56374;DHT22;58212;47.034;7.376;2023-02-01T00:14:49;3.10;99.90
56374;DHT22;58212;47.034;7.376;2023-02-01T00:17:16;3.20;99.90
56374;DHT22;58212;47.034;7.376;2023-02-01T00:19:42;3.20;99.90
56374;DHT22;58212;47.034;7.376;2023-02-01T00:22:09;3.20;99.90
56374;DHT22;58212;47.034;7.376;2023-02-01T00:24:38;3.20;99.90
56374;DHT22;58212;47.034;7.376;2023-02-01T00:27:06;3.20;99.90
56374;DHT22;58212;47.034;7.376;2023-02-01T00:29:33;3.20;99.90
56374;DHT22;58212;47.034;7.376;2023-02-01T00:32:01;3.10;99.90
56374;DHT22;58212;47.034;7.376;2023-02-01T00:34:28;3.00;99.90
56374;DHT22;58212;47.034;7.376;2023-02-01T00:36:55;3.10;99.90
56374;DHT22;58212;47.034;7.376;2023-02-01T00:39:24;3.00;99.90
56374;DHT22;58212;47.034;7.376;2023-02-01T00:41:52;3.10;99.90
56374;DHT22;58212;47.034;7.376;2023-02-01T00:44:20;3.10;99.90
56374;DHT22;58212;47.034;7.376;2023-02-01T00:46:48;3.00;99.90
56374;DHT22;58212;47.034;7.376;2023-02-01T00:49:39;3.00;99.90
56374;DHT22;58212;47.034;7.376;2023-02-01T00:52:07;3.00;99.90
56374;DHT22;58212;47.034;7.376;2023-02-01T00:54:38;2.80;99.90
56374;DHT22;58212;47.034;7.376;2023-02-01T00:57:07;2.80;99.90
56374;DHT22;58212;47.034;7.376;2023-02-01T00:59:34;2.80;99.90
56374;DHT22;58212;47.034;7.376;2023-02-01T01:02:03;2.80;99.90
56374;DHT22;58212;47.034;7.376;2023-02-01T01:04:30;2.70;99.90
56374;DHT22;58212;47.034;7.376;2023-02-01T01:06:58;2.70;99.90
56374;DHT22;58212;47.034;7.376;2023-02-01T01:09:49;2.50;99.90
56374;DHT22;58212;47.034;7.376;2023-02-01T01:12:19;2.50;99.90
56374;DHT22;58212;47.034;7.376;2023-02-01T01:14:47;2.50;99.90
56374;DHT22;58212;47.034;7.376;2023-02-01T01:17:14;2.40;99.90
56374;DHT22;58212;47.034;7.376;2023-02-01T01:19:41;2.30;99.90
56374;DHT22;58212;47.034;7.376;2023-02-01T01:22:08;2.30;99.90
56374;DHT22;58212;47.034;7.376;2023-02-01T01:24:35;2.20;99.90
56374;DHT22;58212;47.034;7.376;2023-02-01T01:27:02;2.20;99.90
56374;DHT22;58212;47.034;7.376;2023-02-01T01:29:30;2.20;99.90
56374;DHT22;58212;47.034;7.376;2023-02-01T01:31:58;2.30;99.90
56374;DHT22;58212;47.034;7.376;2023-02-01T01:34:26;2.30;99.90
56374;DHT22;58212;47.034;7.376;2023-02-01T01:36:53;2.00;99.90
56374;DHT22;58212;47.034;7.376;2023-02-01T01:39:22;2.10;99.90
56374;DHT22;58212;47.034;7.376;2023-02-01T01:42:13;2.20;99.90
56374;DHT22;58212;47.034;7.376;2023-02-01T01:44:59;2.20;99.90
56374;DHT22;58212;47.034;7.376;2023-02-01T01:47:37;2.10;99.90
56374;DHT22;58212;47.034;7.376;2023-02-01T01:50:08;2.10;99.90
56374;DHT22;58212;47.034;7.376;2023-02-01T01:52:37;2.00;99.90
56374;DHT22;58212;47.034;7.376;2023-02-01T01:55:06;1.90;99.90
56374;DHT22;58212;47.034;7.376;2023-02-01T01:57:35;1.80;99.90
56374;DHT22;58212;47.034;7.376;2023-02-01T02:00:10;1.90;99.90
56374;DHT22;58212;47.034;7.376;2023-02-01T02:02:46;2.00;99.90
56374;DHT22;58212;47.034;7.376;2023-02-01T02:05:15;1.90;99.90
56374;DHT22;58212;47.034;7.376;2023-02-01T02:07:47;1.80;99.90
56374;DHT22;58212;47.034;7.376;2023-02-01T02:10:16;1.90;99.90
56374;DHT22;58212;47.034;7.376;2023-02-01T02:12:46;2.00;99.90
56374;DHT22;58212;47.034;7.376;2023-02-01T02:15:19;2.00;99.90
56374;DHT22;58212;47.034;7.376;2023-02-01T02:17:54;1.90;99.90
56374;DHT22;58212;47.034;7.376;2023-02-01T02:20:45;1.70;99.90
56374;DHT22;58212;47.034;7.376;2023-02-01T02:32:52;1.70;99.90
56374;DHT22;58212;47.034;7.376;2023-02-01T02:35:31;1.70;99.90
56374;DHT22;58212;47.034;7.376;2023-02-01T02:38:09;1.70;99.90
56374;DHT22;58212;47.034;7.376;2023-02-01T02:40:47;1.60;99.90
56374;DHT22;58212;47.034;7.376;2023-02-01T02:43:20;1.60;99.90
56374;DHT22;58212;47.034;7.376;2023-02-01T02:46:12;1.60;99.90
56374;DHT22;58212;47.034;7.376;2023-02-01T02:49:04;1.60;99.90
56374;DHT22;58212;47.034;7.376;2023-02-01T02:51:37;1.60;99.90
56374;DHT22;58212;47.034;7.376;2023-02-01T02:54:29;1.50;99.90
56374;DHT22;58212;47.034;7.376;2023-02-01T02:57:20;1.50;99.90
56374;DHT22;58212;47.034;7.376;2023-02-01T03:00:11;1.60;99.90
56374;DHT22;58212;47.034;7.376;2023-02-01T03:02:57;1.70;99.90
56374;DHT22;58212;47.034;7.376;2023-02-01T03:05:46;1.60;99.90
56374;DHT22;58212;47.034;7.376;2023-02-01T03:08:17;1.60;99.90
56374;DHT22;58212;47.034;7.376;2023-02-01T03:10:52;1.60;99.90
56374;DHT22;58212;47.034;7.376;2023-02-01T03:13:28;1.60;99.90
56374;DHT22;58212;47.034;7.376;2023-02-01T03:16:00;1.50;99.90
56374;DHT22;58212;47.034;7.376;2023-02-01T03:18:33;1.60;99.90
56374;DHT22;58212;47.034;7.376;2023-02-01T03:21:05;1.70;99.90
56374;DHT22;58212;47.034;7.376;2023-02-01T03:24:01;1.50;99.90
56374;DHT22;58212;47.034;7.376;2023-02-01T03:26:36;1.40;99.90
56374;DHT22;58212;47.034;7.376;2023-02-01T03:29:09;1.30;99.90
56374;DHT22;58212;47.034;7.376;2023-02-01T03:31:42;1.30;99.90
56374;DHT22;58212;47.034;7.376;2023-02-01T03:34:10;1.30;99.90
56374;DHT22;58212;47.034;7.376;2023-02-01T03:36:43;1.30;99.90
56374;DHT22;58212;47.034;7.376;2023-02-01T03:39:19;1.30;99.90
56374;DHT22;58212;47.034;7.376;2023-02-01T03:41:50;1.40;99.90
56374;DHT22;58212;47.034;7.376;2023-02-01T03:44:21;1.30;99.90
56374;DHT22;58212;47.034;7.376;2023-02-01T03:46:56;1.50;99.90
56374;DHT22;58212;47.034;7.376;2023-02-01T03:49:28;1.50;99.90
56374;DHT22;58212;47.034;7.376;2023-02-01T03:52:00;1.50;99.90
56374;DHT22;58212;47.034;7.376;2023-02-01T03:54:30;1.50;99.90
56374;DHT22;58212;47.034;7.376;2023-02-01T03:57:01;1.40;99.90
56374;DHT22;58212;47.034;7.376;2023-02-01T03:59:31;1.30;99.90
56374;DHT22;58212;47.034;7.376;2023-02-01T04:01:58;1.40;99.90
56374;DHT22;58212;47.034;7.376;2023-02-01T04:04:50;1.40;99.90
56374;DHT22;58212;47.034;7.376;2023-02-01T04:07:19;1.40;99.90
56374;DHT22;58212;47.034;7.376;2023-02-01T04:09:47;1.30;99.90
56374;DHT22;58212;47.034;7.376;2023-02-01T04:12:14;1.20;99.90
56374;DHT22;58212;47.034;7.376;2023-02-01T04:14:41;1.20;99.90
56374;DHT22;58212;47.034;7.376;2023-02-01T04:17:33;1.00;99.90
56374;DHT22;58212;47.034;7.376;2023-02-01T04:20:25;1.00;99.90
56374;DHT22;58212;47.034;7.376;2023-02-01T04:22:53;1.10;99.90
56374;DHT22;58212;47.034;7.376;2023-02-01T04:25:21;1.20;99.90
56374;DHT22;58212;47.034;7.376;2023-02-01T04:27:49;1.20;99.90
56374;DHT22;58212;47.034;7.376;2023-02-01T04:30:16;1.20;99.90
56374;DHT22;58212;47.034;7.376;2023-02-01T04:32:44;1.10;99.90
56374;DHT22;58212;47.034;7.376;2023-02-01T04:35:10;1.00;99.90
56374;DHT22;58212;47.034;7.376;2023-02-01T04:37:37;1.00;99.90
56374;DHT22;58212;47.034;7.376;2023-02-01T04:40:06;1.10;99.90
56374;DHT22;58212;47.034;7.376;2023-02-01T04:42:37;1.10;99.90
56374;DHT22;58212;47.034;7.376;2023-02-01T04:45:05;1.10;99.90
56374;DHT22;58212;47.034;7.376;2023-02-01T04:47:36;1.10;99.90
56374;DHT22;58212;47.034;7.376;2023-02-01T04:50:03;1.00;99.90
56374;DHT22;58212;47.034;7.376;2023-02-01T04:52:31;1.10;99.90
56374;DHT22;58212;47.034;7.376;2023-02-01T04:55:00;1.00;99.90
56374;DHT22;58212;47.034;7.376;2023-02-01T04:57:28;1.20;99.90
56374;DHT22;58212;47.034;7.376;2023-02-01T04:59:56;0.90;99.90
56374;DHT22;58212;47.034;7.376;2023-02-01T05:02:24;0.80;99.90
56374;DHT22;58212;47.034;7.376;2023-02-01T05:05:16;0.70;99.90
56374;DHT22;58212;47.034;7.376;2023-02-01T05:07:43;0.90;99.90
56374;DHT22;58212;47.034;7.376;2023-02-01T05:10:12;1.00;99.90
56374;DHT22;58212;47.034;7.376;2023-02-01T05:12:38;1.10;99.90
56374;DHT22;58212;47.034;7.376;2023-02-01T05:15:24;1.00;99.90
56374;DHT22;58212;47.034;7.376;2023-02-01T05:17:52;1.10;99.90
56374;DHT22;58212;47.034;7.376;2023-02-01T05:20:19;1.10;99.90
56374;DHT22;58212;47.034;7.376;2023-02-01T05:22:46;1.10;99.90
56374;DHT22;58212;47.034;7.376;2023-02-01T05:25:14;1.00;99.90
56374;DHT22;58212;47.034;7.376;2023-02-01T05:27:42;1.00;99.90
56374;DHT22;58212;47.034;7.376;2023-02-01T05:30:10;1.20;99.90
56374;DHT22;58212;47.034;7.376;2023-02-01T05:32:38;1.30;99.90
56374;DHT22;58212;47.034;7.376;2023-02-01T05:35:06;1.10;99.90
56374;DHT22;58212;47.034;7.376;2023-02-01T05:37:37;1.10;99.90
56374;DHT22;58212;47.034;7.376;2023-02-01T05:40:04;1.10;99.90
56374;DHT22;58212;47.034;7.376;2023-02-01T05:42:31;1.20;99.90
56374;DHT22;58212;47.034;7.376;2023-02-01T05:44:59;1.40;99.90
56374;DHT22;58212;47.034;7.376;2023-02-01T05:47:26;1.10;99.90
56374;DHT22;58212;47.034;7.376;2023-02-01T05:49:56;1.20;99.90
56374;DHT22;58212;47.034;7.376;2023-02-01T05:52:23;1.30;99.90
56374;DHT22;58212;47.034;7.376;2023-02-01T05:54:50;1.30;99.90
56374;DHT22;58212;47.034;7.376;2023-02-01T05:57:19;1.40;99.90
56374;DHT22;58212;47.034;7.376;2023-02-01T05:59:47;1.30;99.90
56374;DHT22;58212;47.034;7.376;2023-02-01T06:02:15;1.20;99.90
56374;DHT22;58212;47.034;7.376;2023-02-01T06:04:42;1.20;99.90
56374;DHT22;58212;47.034;7.376;2023-02-01T06:07:10;1.60;99.90
56374;DHT22;58212;47.034;7.376;2023-02-01T06:10:03;1.80;99.90
56374;DHT22;58212;47.034;7.376;2023-02-01T06:12:30;2.10;99.90
56374;DHT22;58212;47.034;7.376;2023-02-01T06:15:22;2.40;99.90
56374;DHT22;58212;47.034;7.376;2023-02-01T06:17:49;2.50;99.90
56374;DHT22;58212;47.034;7.376;2023-02-01T06:20:16;2.50;99.90
56374;DHT22;58212;47.034;7.376;2023-02-01T06:22:45;2.50;99.90
56374;DHT22;58212;47.034;7.376;2023-02-01T06:25:12;2.60;99.90
56374;DHT22;58212;47.034;7.376;2023-02-01T06:27:40;2.50;99.90
56374;DHT22;58212;47.034;7.376;2023-02-01T06:30:08;2.60;99.90
56374;DHT22;58212;47.034;7.376;2023-02-01T06:32:36;2.70;99.90
56374;DHT22;58212;47.034;7.376;2023-02-01T06:35:05;2.70;99.90
56374;DHT22;58212;47.034;7.376;2023-02-01T06:37:37;2.50;99.90
56374;DHT22;58212;47.034;7.376;2023-02-01T06:40:06;2.40;99.90
56374;DHT22;58212;47.034;7.376;2023-02-01T06:42:36;2.40;99.90
56374;DHT22;58212;47.034;7.376;2023-02-01T06:45:03;2.50;99.90
56374;DHT22;58212;47.034;7.376;2023-02-01T06:47:32;2.70;99.90
56374;DHT22;58212;47.034;7.376;2023-02-01T06:50:01;2.70;99.90
56374;DHT22;58212;47.034;7.376;2023-02-01T06:52:28;2.70;99.90
56374;DHT22;58212;47.034;7.376;2023-02-01T06:55:22;2.60;99.90
56374;DHT22;58212;47.034;7.376;2023-02-01T06:57:55;2.70;99.90
56374;DHT22;58212;47.034;7.376;2023-02-01T07:00:24;2.60;99.90
56374;DHT22;58212;47.034;7.376;2023-02-01T07:03:16;2.40;99.90
56374;DHT22;58212;47.034;7.376;2023-02-01T07:05:44;2.40;99.90
56374;DHT22;58212;47.034;7.376;2023-02-01T07:08:11;2.30;99.90
56374;DHT22;58212;47.034;7.376;2023-02-01T07:10:39;2.50;99.90
56374;DHT22;58212;47.034;7.376;2023-02-01T07:13:08;2.30;99.90
56374;DHT22;58212;47.034;7.376;2023-02-01T07:15:34;2.10;99.90
56374;DHT22;58212;47.034;7.376;2023-02-01T07:18:03;2.20;99.90
56374;DHT22;58212;47.034;7.376;2023-02-01T07:20:34;2.30;99.90
56374;DHT22;58212;47.034;7.376;2023-02-01T07:23:00;2.30;99.90
56374;DHT22;58212;47.034;7.376;2023-02-01T07:25:28;2.40;99.90
56374;DHT22;58212;47.034;7.376;2023-02-01T07:27:56;2.50;99.90
56374;DHT22;58212;47.034;7.376;2023-02-01T07:30:23;2.50;99.90
56374;DHT22;58212;47.034;7.376;2023-02-01T07:32:51;2.60;99.90
56374;DHT22;58212;47.034;7.376;2023-02-01T07:35:43;2.60;99.90
56374;DHT22;58212;47.034;7.376;2023-02-01T07:38:11;2.50;99.90
56374;DHT22;58212;47.034;7.376;2023-02-01T07:40:38;2.70;99.90
56374;DHT22;58212;47.034;7.376;2023-02-01T07:43:06;2.60;99.90
56374;DHT22;58212;47.034;7.376;2023-02-01T07:45:35;2.60;99.90
56374;DHT22;58212;47.034;7.376;2023-02-01T07:48:04;2.70;99.90
56374;DHT22;58212;47.034;7.376;2023-02-01T07:50:31;2.60;99.90
56374;DHT22;58212;47.034;7.376;2023-02-01T07:52:58;2.60;99.90
56374;DHT22;58212;47.034;7.376;2023-02-01T07:55:26;2.70;99.90
56374;DHT22;58212;47.034;7.376;2023-02-01T07:57:56;2.50;99.90
56374;DHT22;58212;47.034;7.376;2023-02-01T08:00:25;2.50;99.90
56374;DHT22;58212;47.034;7.376;2023-02-01T08:03:11;2.60;99.90
56374;DHT22;58212;47.034;7.376;2023-02-01T08:05:38;2.50;99.90
56374;DHT22;58212;47.034;7.376;2023-02-01T08:08:06;2.50;99.90
56374;DHT22;58212;47.034;7.376;2023-02-01T08:10:33;2.50;99.90
56374;DHT22;58212;47.034;7.376;2023-02-01T08:13:01;2.70;99.90
56374;DHT22;58212;47.034;7.376;2023-02-01T08:15:30;2.90;99.90
56374;DHT22;58212;47.034;7.376;2023-02-01T08:17:59;3.20;99.90
56374;DHT22;58212;47.034;7.376;2023-02-01T08:20:28;3.10;99.90
56374;DHT22;58212;47.034;7.376;2023-02-01T08:22:55;3.20;99.90
56374;DHT22;58212;47.034;7.376;2023-02-01T08:25:50;3.10;99.90
56374;DHT22;58212;47.034;7.376;2023-02-01T08:28:17;3.00;99.90
56374;DHT22;58212;47.034;7.376;2023-02-01T08:30:45;3.10;99.90
56374;DHT22;58212;47.034;7.376;2023-02-01T08:33:16;2.80;99.90
56374;DHT22;58212;47.034;7.376;2023-02-01T08:35:43;2.80;99.90
56374;DHT22;58212;47.034;7.376;2023-02-01T08:38:35;3.00;99.90
56374;DHT22;58212;47.034;7.376;2023-02-01T08:41:06;2.70;99.90
56374;DHT22;58212;47.034;7.376;2023-02-01T08:43:33;3.10;99.90
56374;DHT22;58212;47.034;7.376;2023-02-01T08:46:02;3.40;99.90
56374;DHT22;58212;47.034;7.376;2023-02-01T08:48:54;3.50;99.90
56374;DHT22;58212;47.034;7.376;2023-02-01T08:51:23;3.60;99.90
56374;DHT22;58212;47.034;7.376;2023-02-01T08:53:50;3.50;99.90
56374;DHT22;58212;47.034;7.376;2023-02-01T08:56:19;3.50;99.90
56374;DHT22;58212;47.034;7.376;2023-02-01T08:58:50;3.20;99.90
56374;DHT22;58212;47.034;7.376;2023-02-01T09:01:20;3.40;99.90
56374;DHT22;58212;47.034;7.376;2023-02-01T09:04:11;3.30;99.90
56374;DHT22;58212;47.034;7.376;2023-02-01T09:06:42;3.50;99.90
56374;DHT22;58212;47.034;7.376;2023-02-01T09:09:09;3.60;99.90
56374;DHT22;58212;47.034;7.376;2023-02-01T09:12:00;3.70;99.90
56374;DHT22;58212;47.034;7.376;2023-02-01T09:14:28;4.00;99.90
56374;DHT22;58212;47.034;7.376;2023-02-01T09:17:00;4.10;99.90
56374;DHT22;58212;47.034;7.376;2023-02-01T09:19:27;4.20;99.90
56374;DHT22;58212;47.034;7.376;2023-02-01T09:21:56;4.30;99.90
56374;DHT22;58212;47.034;7.376;2023-02-01T09:24:23;4.20;99.90
56374;DHT22;58212;47.034;7.376;2023-02-01T09:26:52;4.30;99.90
56374;DHT22;58212;47.034;7.376;2023-02-01T09:29:19;4.60;99.90
56374;DHT22;58212;47.034;7.376;2023-02-01T09:31:47;5.00;99.90
56374;DHT22;58212;47.034;7.376;2023-02-01T09:34:15;5.30;99.90
56374;DHT22;58212;47.034;7.376;2023-02-01T09:36:44;5.30;99.90
56374;DHT22;58212;47.034;7.376;2023-02-01T09:39:11;5.50;99.90
56374;DHT22;58212;47.034;7.376;2023-02-01T09:41:49;5.60;99.90
56374;DHT22;58212;47.034;7.376;2023-02-01T09:44:32;5.60;99.90
56374;DHT22;58212;47.034;7.376;2023-02-01T09:47:03;5.70;99.90
56374;DHT22;58212;47.034;7.376;2023-02-01T09:49:33;6.00;99.90
56374;DHT22;58212;47.034;7.376;2023-02-01T09:52:06;6.20;99.90
56374;DHT22;58212;47.034;7.376;2023-02-01T09:54:41;6.00;99.90
56374;DHT22;58212;47.034;7.376;2023-02-01T09:57:14;6.40;99.90
56374;DHT22;58212;47.034;7.376;2023-02-01T10:00:15;6.60;99.90
56374;DHT22;58212;47.034;7.376;2023-02-01T10:02:44;6.80;99.90
56374;DHT22;58212;47.034;7.376;2023-02-01T10:05:16;6.50;99.90
56374;DHT22;58212;47.034;7.376;2023-02-01T10:07:51;6.60;99.90
56374;DHT22;58212;47.034;7.376;2023-02-01T10:10:29;6.50;99.90
56374;DHT22;58212;47.034;7.376;2023-02-01T10:13:13;6.60;99.90
56374;DHT22;58212;47.034;7.376;2023-02-01T10:15:53;7.20;99.90
56374;DHT22;58212;47.034;7.376;2023-02-01T10:18:41;7.00;99.90
56374;DHT22;58212;47.034;7.376;2023-02-01T10:21:23;6.50;99.90
56374;DHT22;58212;47.034;7.376;2023-02-01T10:24:07;6.40;99.90
56374;DHT22;58212;47.034;7.376;2023-02-01T10:26:42;6.40;99.90
56374;DHT22;58212;47.034;7.376;2023-02-01T10:29:15;6.50;99.90
56374;DHT22;58212;47.034;7.376;2023-02-01T10:31:43;6.80;99.90
56374;DHT22;58212;47.034;7.376;2023-02-01T10:34:18;6.50;99.90
56374;DHT22;58212;47.034;7.376;2023-02-01T10:36:56;6.80;99.90
56374;DHT22;58212;47.034;7.376;2023-02-01T10:39:27;6.50;99.90
56374;DHT22;58212;47.034;7.376;2023-02-01T10:41:55;6.60;99.90
56374;DHT22;58212;47.034;7.376;2023-02-01T10:44:25;6.80;99.90
56374;DHT22;58212;47.034;7.376;2023-02-01T10:46:54;6.70;99.90
56374;DHT22;58212;47.034;7.376;2023-02-01T10:49:26;6.60;99.90
56374;DHT22;58212;47.034;7.376;2023-02-01T10:52:05;6.60;99.90
56374;DHT22;58212;47.034;7.376;2023-02-01T10:54:38;6.50;99.90
56374;DHT22;58212;47.034;7.376;2023-02-01T10:57:07;6.70;99.90
56374;DHT22;58212;47.034;7.376;2023-02-01T10:59:35;7.00;99.90
56374;DHT22;58212;47.034;7.376;2023-02-01T11:02:13;7.00;99.90
56374;DHT22;58212;47.034;7.376;2023-02-01T11:04:42;6.90;99.90
56374;DHT22;58212;47.034;7.376;2023-02-01T11:07:17;6.90;99.90
56374;DHT22;58212;47.034;7.376;2023-02-01T11:09:50;7.00;99.90
56374;DHT22;58212;47.034;7.376;2023-02-01T11:12:25;7.00;99.90
56374;DHT22;58212;47.034;7.376;2023-02-01T11:15:00;7.10;99.90
56374;DHT22;58212;47.034;7.376;2023-02-01T11:17:32;7.00;99.90
56374;DHT22;58212;47.034;7.376;2023-02-01T11:20:08;6.70;99.90
56374;DHT22;58212;47.034;7.376;2023-02-01T11:23:13;6.50;99.90
56374;DHT22;58212;47.034;7.376;2023-02-01T11:25:48;6.20;99.90
56374;DHT22;58212;47.034;7.376;2023-02-01T11:28:16;6.40;99.90
56374;DHT22;58212;47.034;7.376;2023-02-01T11:30:46;6.30;99.90
56374;DHT22;58212;47.034;7.376;2023-02-01T11:33:18;6.40;99.90
56374;DHT22;58212;47.034;7.376;2023-02-01T11:35:47;6.30;99.90
56374;DHT22;58212;47.034;7.376;2023-02-01T11:38:27;6.60;99.90
56374;DHT22;58212;47.034;7.376;2023-02-01T11:40:55;6.90;99.90
56374;DHT22;58212;47.034;7.376;2023-02-01T11:43:24;6.70;99.90
56374;DHT22;58212;47.034;7.376;2023-02-01T11:45:58;6.70;99.90
56374;DHT22;58212;47.034;7.376;2023-02-01T11:48:27;7.00;99.90
56374;DHT22;58212;47.034;7.376;2023-02-01T11:51:08;7.10;99.90
56374;DHT22;58212;47.034;7.376;2023-02-01T11:53:58;7.00;99.90
56374;DHT22;58212;47.034;7.376;2023-02-01T11:56:33;7.00;99.90
56374;DHT22;58212;47.034;7.376;2023-02-01T11:59:15;7.10;99.90
56374;DHT22;58212;47.034;7.376;2023-02-01T12:02:00;7.00;99.90
56374;DHT22;58212;47.034;7.376;2023-02-01T12:05:07;7.10;99.90
56374;DHT22;58212;47.034;7.376;2023-02-01T12:08:02;7.30;99.90
56374;DHT22;58212;47.034;7.376;2023-02-01T12:10:41;7.60;99.90
56374;DHT22;58212;47.034;7.376;2023-02-01T12:13:21;7.70;99.90
56374;DHT22;58212;47.034;7.376;2023-02-01T12:16:00;7.60;99.90
56374;DHT22;58212;47.034;7.376;2023-02-01T12:18:57;7.60;99.90
56374;DHT22;58212;47.034;7.376;2023-02-01T12:22:02;7.70;99.90
56374;DHT22;58212;47.034;7.376;2023-02-01T12:30:54;7.80;99.90
56374;DHT22;58212;47.034;7.376;2023-02-01T12:34:05;7.90;99.90
56374;DHT22;58212;47.034;7.376;2023-02-01T12:36:41;7.70;99.90
56374;DHT22;58212;47.034;7.376;2023-02-01T12:39:20;7.60;99.90
56374;DHT22;58212;47.034;7.376;2023-02-01T12:41:53;7.60;99.90
56374;DHT22;58212;47.034;7.376;2023-02-01T12:47:18;7.50;99.90
56374;DHT22;58212;47.034;7.376;2023-02-01T12:49:53;7.60;99.90
56374;DHT22;58212;47.034;7.376;2023-02-01T12:52:26;7.40;99.90
56374;DHT22;58212;47.034;7.376;2023-02-01T12:54:57;7.30;99.90
56374;DHT22;58212;47.034;7.376;2023-02-01T12:57:30;7.40;99.90
56374;DHT22;58212;47.034;7.376;2023-02-01T13:00:12;7.40;99.90
56374;DHT22;58212;47.034;7.376;2023-02-01T13:02:43;7.40;99.90
56374;DHT22;58212;47.034;7.376;2023-02-01T13:05:17;7.40;99.90
56374;DHT22;58212;47.034;7.376;2023-02-01T13:07:49;7.50;99.90
56374;DHT22;58212;47.034;7.376;2023-02-01T13:10:24;7.40;99.90
56374;DHT22;58212;47.034;7.376;2023-02-01T13:12:57;7.40;99.90
56374;DHT22;58212;47.034;7.376;2023-02-01T13:15:32;7.30;99.90
56374;DHT22;58212;47.034;7.376;2023-02-01T13:18:03;7.20;99.90
56374;DHT22;58212;47.034;7.376;2023-02-01T13:20:35;7.40;99.90
56374;DHT22;58212;47.034;7.376;2023-02-01T13:23:11;7.40;99.90
56374;DHT22;58212;47.034;7.376;2023-02-01T13:25:46;7.40;99.90
56374;DHT22;58212;47.034;7.376;2023-02-01T13:28:20;7.40;99.90
56374;DHT22;58212;47.034;7.376;2023-02-01T13:31:06;7.50;99.90
56374;DHT22;58212;47.034;7.376;2023-02-01T13:33:55;7.60;99.90
56374;DHT22;58212;47.034;7.376;2023-02-01T13:36:47;7.50;99.90
56374;DHT22;58212;47.034;7.376;2023-02-01T13:39:37;7.20;99.90
56374;DHT22;58212;47.034;7.376;2023-02-01T13:42:15;7.30;99.90
56374;DHT22;58212;47.034;7.376;2023-02-01T13:44:45;7.50;99.90
56374;DHT22;58212;47.034;7.376;2023-02-01T13:47:23;7.60;99.90
56374;DHT22;58212;47.034;7.376;2023-02-01T13:49:53;7.70;99.90
56374;DHT22;58212;47.034;7.376;2023-02-01T13:52:32;7.60;99.90
56374;DHT22;58212;47.034;7.376;2023-02-01T13:55:15;7.60;99.90
56374;DHT22;58212;47.034;7.376;2023-02-01T13:57:50;7.50;99.90
56374;DHT22;58212;47.034;7.376;2023-02-01T14:00:27;7.10;99.90
56374;DHT22;58212;47.034;7.376;2023-02-01T14:03:15;7.00;99.90
56374;DHT22;58212;47.034;7.376;2023-02-01T14:11:51;6.60;99.90
56374;DHT22;58212;47.034;7.376;2023-02-01T14:14:43;6.60;99.90
56374;DHT22;58212;47.034;7.376;2023-02-01T14:17:39;6.70;99.90
56374;DHT22;58212;47.034;7.376;2023-02-01T14:20:45;6.70;99.90
56374;DHT22;58212;47.034;7.376;2023-02-01T14:23:17;6.50;99.90
56374;DHT22;58212;47.034;7.376;2023-02-01T14:25:47;6.50;99.90
56374;DHT22;58212;47.034;7.376;2023-02-01T14:28:25;6.40;99.90
56374;DHT22;58212;47.034;7.376;2023-02-01T14:30:54;6.30;99.90
56374;DHT22;58212;47.034;7.376;2023-02-01T14:33:24;6.50;99.90
56374;DHT22;58212;47.034;7.376;2023-02-01T14:36:03;6.60;99.90
56374;DHT22;58212;47.034;7.376;2023-02-01T14:38:33;6.70;99.90
56374;DHT22;58212;47.034;7.376;2023-02-01T14:41:31;6.80;99.90
56374;DHT22;58212;47.034;7.376;2023-02-01T14:44:28;6.80;99.90
56374;DHT22;58212;47.034;7.376;2023-02-01T14:47:07;7.00;99.90
56374;DHT22;58212;47.034;7.376;2023-02-01T14:49:42;7.10;99.90
56374;DHT22;58212;47.034;7.376;2023-02-01T14:52:17;6.90;99.90
56374;DHT22;58212;47.034;7.376;2023-02-01T14:54:48;6.80;99.90
56374;DHT22;58212;47.034;7.376;2023-02-01T14:57:17;6.80;99.90
56374;DHT22;58212;47.034;7.376;2023-02-01T14:59:45;7.00;99.90
56374;DHT22;58212;47.034;7.376;2023-02-01T15:02:21;6.90;99.90
56374;DHT22;58212;47.034;7.376;2023-02-01T15:04:54;7.00;99.90
56374;DHT22;58212;47.034;7.376;2023-02-01T15:07:25;6.80;99.90
56374;DHT22;58212;47.034;7.376;2023-02-01T15:09:56;6.90;99.90
56374;DHT22;58212;47.034;7.376;2023-02-01T15:12:26;6.90;99.90
56374;DHT22;58212;47.034;7.376;2023-02-01T15:15:14;6.80;99.90
56374;DHT22;58212;47.034;7.376;2023-02-01T15:17:50;6.80;99.90
56374;DHT22;58212;47.034;7.376;2023-02-01T15:20:20;6.90;99.90
56374;DHT22;58212;47.034;7.376;2023-02-01T15:23:17;7.00;99.90
56374;DHT22;58212;47.034;7.376;2023-02-01T15:25:46;6.90;99.90
56374;DHT22;58212;47.034;7.376;2023-02-01T15:28:14;6.80;99.90
56374;DHT22;58212;47.034;7.376;2023-02-01T15:30:52;6.90;99.90
56374;DHT22;58212;47.034;7.376;2023-02-01T15:33:20;6.80;99.90
56374;DHT22;58212;47.034;7.376;2023-02-01T15:35:49;6.50;99.90
56374;DHT22;58212;47.034;7.376;2023-02-01T15:38:34;6.50;99.90
56374;DHT22;58212;47.034;7.376;2023-02-01T15:41:05;6.50;99.90
56374;DHT22;58212;47.034;7.376;2023-02-01T15:43:37;6.50;99.90
56374;DHT22;58212;47.034;7.376;2023-02-01T15:46:31;6.40;99.90
56374;DHT22;58212;47.034;7.376;2023-02-01T15:49:11;6.30;99.90
56374;DHT22;58212;47.034;7.376;2023-02-01T15:51:44;6.10;99.90
56374;DHT22;58212;47.034;7.376;2023-02-01T15:54:45;6.00;99.90
56374;DHT22;58212;47.034;7.376;2023-02-01T15:57:20;6.10;99.90
56374;DHT22;58212;47.034;7.376;2023-02-01T15:59:53;6.10;99.90
56374;DHT22;58212;47.034;7.376;2023-02-01T16:02:29;6.20;99.90
56374;DHT22;58212;47.034;7.376;2023-02-01T16:05:02;6.20;99.90
56374;DHT22;58212;47.034;7.376;2023-02-01T16:07:32;6.00;99.90
56374;DHT22;58212;47.034;7.376;2023-02-01T16:10:27;6.00;99.90
56374;DHT22;58212;47.034;7.376;2023-02-01T16:12:49;5.80;99.90
56374;DHT22;58212;47.034;7.376;2023-02-01T16:15:20;5.80;99.90
56374;DHT22;58212;47.034;7.376;2023-02-01T16:17:47;5.70;99.90
56374;DHT22;58212;47.034;7.376;2023-02-01T16:20:15;5.70;99.90
56374;DHT22;58212;47.034;7.376;2023-02-01T16:22:42;5.60;99.90
56374;DHT22;58212;47.034;7.376;2023-02-01T16:25:10;5.60;99.90
56374;DHT22;58212;47.034;7.376;2023-02-01T16:27:37;5.40;99.90
56374;DHT22;58212;47.034;7.376;2023-02-01T16:30:05;5.40;99.90
56374;DHT22;58212;47.034;7.376;2023-02-01T16:32:35;5.50;99.90
56374;DHT22;58212;47.034;7.376;2023-02-01T16:35:04;5.40;99.90
56374;DHT22;58212;47.034;7.376;2023-02-01T16:37:34;5.50;99.90
56374;DHT22;58212;47.034;7.376;2023-02-01T16:40:02;5.40;99.90
56374;DHT22;58212;47.034;7.376;2023-02-01T16:42:30;5.30;99.90
56374;DHT22;58212;47.034;7.376;2023-02-01T16:44:57;5.10;99.90
56374;DHT22;58212;47.034;7.376;2023-02-01T16:47:25;5.30;99.90
56374;DHT22;58212;47.034;7.376;2023-02-01T16:49:52;5.30;99.90